sensor_id;sensor_type;location;lat;lon;timestamp;temperature;humidity
9881;DHT22;4979;51.014;6.678;2023-04-02T00:02:47;8.60;99.90
9881;DHT22;4979;51.014;6.678;2023-04-02T00:07:49;8.60;99.90
9881;DHT22;4979;51.014;6.678;2023-04-02T00:10:32;8.60;99.90
9881;DHT22;4979;51.014;6.678;2023-04-02T00:13:02;8.60;99.90
9881;DHT22;4979;51.014;6.678;2023-04-02T00:15:28;8.60;99.90
9881;DHT22;4979;51.014;6.678;2023-04-02T00:17:55;8.60;99.90
9881;DHT22;4979;51.014;6.678;2023-04-02T00:20:21;8.60;99.90
9881;DHT22;4979;51.014;6.678;2023-04-02T00:22:48;8.60;99.90
9881;DHT22;4979;51.014;6.678;2023-04-02T00:25:14;8.50;99.90
9881;DHT22;4979;51.014;6.678;2023-04-02T00:27:40;8.40;99.90
9881;DHT22;4979;51.014;6.678;2023-04-02T00:30:07;8.40;99.90
9881;DHT22;4979;51.014;6.678;2023-04-02T00:32:34;8.50;99.90
9881;DHT22;4979;51.014;6.678;2023-04-02T00:35:01;8.50;99.90
9881;DHT22;4979;51.014;6.678;2023-04-02T00:37:29;8.50;99.90
9881;DHT22;4979;51.014;6.678;2023-04-02T00:40:23;8.40;99.90
9881;DHT22;4979;51.014;6.678;2023-04-02T00:42:49;8.30;99.90
9881;DHT22;4979;51.014;6.678;2023-04-02T00:45:25;8.50;99.90
9881;DHT22;4979;51.014;6.678;2023-04-02T00:47:53;8.40;99.90
9881;DHT22;4979;51.014;6.678;2023-04-02T00:50:31;8.40;99.90
9881;DHT22;4979;51.014;6.678;2023-04-02T00:53:03;8.30;99.90
9881;DHT22;4979;51.014;6.678;2023-04-02T00:55:38;8.40;99.90
9881;DHT22;4979;51.014;6.678;2023-04-02T01:05:49;8.40;99.90
9881;DHT22;4979;51.014;6.678;2023-04-02T01:11:01;8.40;99.90
9881;DHT22;4979;51.014;6.678;2023-04-02T01:19:03;8.20;99.90
9881;DHT22;4979;51.014;6.678;2023-04-02T01:24:29;8.20;99.90
9881;DHT22;4979;51.014;6.678;2023-04-02T01:26:58;8.20;99.90
9881;DHT22;4979;51.014;6.678;2023-04-02T01:32:02;8.10;99.90
9881;DHT22;4979;51.014;6.678;2023-04-02T01:34:29;8.10;99.90
9881;DHT22;4979;51.014;6.678;2023-04-02T01:44:49;8.00;99.90
9881;DHT22;4979;51.014;6.678;2023-04-02T01:47:17;8.00;99.90
9881;DHT22;4979;51.014;6.678;2023-04-02T01:49:44;8.00;99.90
9881;DHT22;4979;51.014;6.678;2023-04-02T01:52:24;8.00;99.90
9881;DHT22;4979;51.014;6.678;2023-04-02T01:54:51;8.00;99.90
9881;DHT22;4979;51.014;6.678;2023-04-02T01:57:17;8.00;99.90
9881;DHT22;4979;51.014;6.678;2023-04-02T01:59:44;8.00;99.90
9881;DHT22;4979;51.014;6.678;2023-04-02T02:02:11;7.90;99.90
9881;DHT22;4979;51.014;6.678;2023-04-02T02:04:38;7.90;99.90
9881;DHT22;4979;51.014;6.678;2023-04-02T02:07:05;7.90;99.90
9881;DHT22;4979;51.014;6.678;2023-04-02T02:09:35;7.90;99.90
9881;DHT22;4979;51.014;6.678;2023-04-02T02:12:02;8.00;99.90
9881;DHT22;4979;51.014;6.678;2023-04-02T02:14:30;7.90;99.90
9881;DHT22;4979;51.014;6.678;2023-04-02T02:17:01;7.80;99.90
9881;DHT22;4979;51.014;6.678;2023-04-02T02:22:31;7.90;99.90
9881;DHT22;4979;51.014;6.678;2023-04-02T02:30:10;7.80;99.90
9881;DHT22;4979;51.014;6.678;2023-04-02T02:32:44;7.80;99.90
9881;DHT22;4979;51.014;6.678;2023-04-02T02:35:28;7.70;99.90
9881;DHT22;4979;51.014;6.678;2023-04-02T02:38:01;7.70;99.90
9881;DHT22;4979;51.014;6.678;2023-04-02T02:40:35;7.70;99.90
9881;DHT22;4979;51.014;6.678;2023-04-02T02:43:05;7.70;99.90
9881;DHT22;4979;51.014;6.678;2023-04-02T02:45:35;7.70;99.90
9881;DHT22;4979;51.014;6.678;2023-04-02T02:48:04;7.60;99.90
9881;DHT22;4979;51.014;6.678;2023-04-02T02:50:31;7.60;99.90
9881;DHT22;4979;51.014;6.678;2023-04-02T02:52:59;7.60;99.90
9881;DHT22;4979;51.014;6.678;2023-04-02T02:55:36;7.70;99.90
9881;DHT22;4979;51.014;6.678;2023-04-02T02:58:06;7.50;99.90
9881;DHT22;4979;51.014;6.678;2023-04-02T03:00:35;7.40;99.90
9881;DHT22;4979;51.014;6.678;2023-04-02T03:03:04;7.50;99.90
9881;DHT22;4979;51.014;6.678;2023-04-02T03:05:32;7.40;99.90
9881;DHT22;4979;51.014;6.678;2023-04-02T03:07:59;7.40;99.90
9881;DHT22;4979;51.014;6.678;2023-04-02T03:10:42;7.40;99.90
9881;DHT22;4979;51.014;6.678;2023-04-02T03:13:23;7.40;99.90
9881;DHT22;4979;51.014;6.678;2023-04-02T03:15:59;7.40;99.90
9881;DHT22;4979;51.014;6.678;2023-04-02T03:18:53;7.30;99.90
9881;DHT22;4979;51.014;6.678;2023-04-02T03:24:04;7.30;99.90
9881;DHT22;4979;51.014;6.678;2023-04-02T03:26:39;7.20;99.90
9881;DHT22;4979;51.014;6.678;2023-04-02T03:29:22;7.30;99.90
9881;DHT22;4979;51.014;6.678;2023-04-02T03:31:56;7.30;99.90
9881;DHT22;4979;51.014;6.678;2023-04-02T03:34:29;7.30;99.90
9881;DHT22;4979;51.014;6.678;2023-04-02T03:37:04;7.30;99.90
9881;DHT22;4979;51.014;6.678;2023-04-02T03:39:36;7.30;99.90
9881;DHT22;4979;51.014;6.678;2023-04-02T03:44:38;7.20;99.90
9881;DHT22;4979;51.014;6.678;2023-04-02T03:47:39;7.10;99.90
9881;DHT22;4979;51.014;6.678;2023-04-02T03:50:19;7.10;99.90
9881;DHT22;4979;51.014;6.678;2023-04-02T03:52:47;7.10;99.90
9881;DHT22;4979;51.014;6.678;2023-04-02T03:55:23;7.00;99.90
9881;DHT22;4979;51.014;6.678;2023-04-02T03:58:15;7.00;99.90
9881;DHT22;4979;51.014;6.678;2023-04-02T04:05:58;7.00;99.90
9881;DHT22;4979;51.014;6.678;2023-04-02T04:09:17;7.00;99.90
9881;DHT22;4979;51.014;6.678;2023-04-02T04:11:18;7.10;99.90
9881;DHT22;4979;51.014;6.678;2023-04-02T04:14:02;7.00;99.90
9881;DHT22;4979;51.014;6.678;2023-04-02T04:16:52;7.00;99.90
9881;DHT22;4979;51.014;6.678;2023-04-02T04:22:19;7.00;99.90
9881;DHT22;4979;51.014;6.678;2023-04-02T04:24:56;6.90;99.90
9881;DHT22;4979;51.014;6.678;2023-04-02T04:30:14;7.00;99.90
9881;DHT22;4979;51.014;6.678;2023-04-02T04:33:04;6.90;99.90
9881;DHT22;4979;51.014;6.678;2023-04-02T04:35:47;6.80;99.90
9881;DHT22;4979;51.014;6.678;2023-04-02T04:38:16;6.90;99.90
9881;DHT22;4979;51.014;6.678;2023-04-02T04:40:49;6.90;99.90
9881;DHT22;4979;51.014;6.678;2023-04-02T04:43:39;6.90;99.90
9881;DHT22;4979;51.014;6.678;2023-04-02T04:46:13;6.90;99.90
9881;DHT22;4979;51.014;6.678;2023-04-02T04:51:43;6.80;99.90
9881;DHT22;4979;51.014;6.678;2023-04-02T04:54:12;6.80;99.90
9881;DHT22;4979;51.014;6.678;2023-04-02T04:56:39;6.80;99.90
9881;DHT22;4979;51.014;6.678;2023-04-02T04:59:24;6.80;99.90
9881;DHT22;4979;51.014;6.678;2023-04-02T05:02:01;6.70;99.90
9881;DHT22;4979;51.014;6.678;2023-04-02T05:04:34;6.70;99.90
9881;DHT22;4979;51.014;6.678;2023-04-02T05:07:16;6.80;99.90
9881;DHT22;4979;51.014;6.678;2023-04-02T05:10:26;6.70;99.90
9881;DHT22;4979;51.014;6.678;2023-04-02T05:13:09;6.60;99.90
9881;DHT22;4979;51.014;6.678;2023-04-02T05:16:02;6.60;99.90
9881;DHT22;4979;51.014;6.678;2023-04-02T05:18:38;6.60;99.90
9881;DHT22;4979;51.014;6.678;2023-04-02T05:26:59;6.50;99.90
9881;DHT22;4979;51.014;6.678;2023-04-02T05:29:30;6.40;99.90
9881;DHT22;4979;51.014;6.678;2023-04-02T05:32:33;6.40;99.90
9881;DHT22;4979;51.014;6.678;2023-04-02T05:35:00;6.40;99.90
9881;DHT22;4979;51.014;6.678;2023-04-02T05:37:30;6.40;99.90
9881;DHT22;4979;51.014;6.678;2023-04-02T05:39:57;6.40;99.90
9881;DHT22;4979;51.014;6.678;2023-04-02T05:42:28;6.40;99.90
9881;DHT22;4979;51.014;6.678;2023-04-02T05:45:05;6.40;99.90
9881;DHT22;4979;51.014;6.678;2023-04-02T05:47:32;6.60;99.90
9881;DHT22;4979;51.014;6.678;2023-04-02T05:52:41;6.60;99.90
9881;DHT22;4979;51.014;6.678;2023-04-02T05:57:48;6.60;99.90
9881;DHT22;4979;51.014;6.678;2023-04-02T06:00:19;6.50;99.90
9881;DHT22;4979;51.014;6.678;2023-04-02T06:02:51;6.40;99.90
9881;DHT22;4979;51.014;6.678;2023-04-02T06:05:23;6.40;99.90
9881;DHT22;4979;51.014;6.678;2023-04-02T06:08:23;6.40;99.90
9881;DHT22;4979;51.014;6.678;2023-04-02T06:10:57;6.20;99.90
9881;DHT22;4979;51.014;6.678;2023-04-02T06:13:24;6.20;99.90
9881;DHT22;4979;51.014;6.678;2023-04-02T06:15:50;6.20;99.90
9881;DHT22;4979;51.014;6.678;2023-04-02T06:18:26;6.30;99.90
9881;DHT22;4979;51.014;6.678;2023-04-02T06:20:53;6.20;99.90
9881;DHT22;4979;51.014;6.678;2023-04-02T06:26:39;6.20;99.90
9881;DHT22;4979;51.014;6.678;2023-04-02T06:31:44;6.20;99.90
9881;DHT22;4979;51.014;6.678;2023-04-02T06:34:23;6.10;99.90
9881;DHT22;4979;51.014;6.678;2023-04-02T06:36:53;6.10;99.90
9881;DHT22;4979;51.014;6.678;2023-04-02T06:39:22;6.10;99.90
9881;DHT22;4979;51.014;6.678;2023-04-02T06:42:10;6.00;99.90
9881;DHT22;4979;51.014;6.678;2023-04-02T06:44:37;5.80;99.90
9881;DHT22;4979;51.014;6.678;2023-04-02T06:49:45;5.90;99.90
9881;DHT22;4979;51.014;6.678;2023-04-02T06:52:32;6.00;99.90
9881;DHT22;4979;51.014;6.678;2023-04-02T06:54:58;6.00;99.90
9881;DHT22;4979;51.014;6.678;2023-04-02T06:57:25;6.00;99.90
9881;DHT22;4979;51.014;6.678;2023-04-02T06:59:50;6.00;99.90
9881;DHT22;4979;51.014;6.678;2023-04-02T07:02:21;6.00;99.90
9881;DHT22;4979;51.014;6.678;2023-04-02T07:04:48;5.90;99.90
9881;DHT22;4979;51.014;6.678;2023-04-02T07:09:40;6.00;99.90
9881;DHT22;4979;51.014;6.678;2023-04-02T07:12:10;6.00;99.90
9881;DHT22;4979;51.014;6.678;2023-04-02T07:14:36;5.90;99.90
9881;DHT22;4979;51.014;6.678;2023-04-02T07:21:53;5.90;99.90
9881;DHT22;4979;51.014;6.678;2023-04-02T07:24:20;6.00;99.90
9881;DHT22;4979;51.014;6.678;2023-04-02T07:26:45;6.20;99.90
9881;DHT22;4979;51.014;6.678;2023-04-02T07:29:14;6.10;99.90
9881;DHT22;4979;51.014;6.678;2023-04-02T07:34:06;6.30;99.90
9881;DHT22;4979;51.014;6.678;2023-04-02T07:36:32;6.20;99.90
9881;DHT22;4979;51.014;6.678;2023-04-02T07:38:58;6.30;99.90
9881;DHT22;4979;51.014;6.678;2023-04-02T07:41:23;6.30;99.90
9881;DHT22;4979;51.014;6.678;2023-04-02T07:46:15;6.40;99.90
9881;DHT22;4979;51.014;6.678;2023-04-02T07:48:43;6.40;99.90
9881;DHT22;4979;51.014;6.678;2023-04-02T07:53:45;6.30;99.90
9881;DHT22;4979;51.014;6.678;2023-04-02T07:56:15;6.40;99.90
9881;DHT22;4979;51.014;6.678;2023-04-02T08:01:20;6.20;99.90
9881;DHT22;4979;51.014;6.678;2023-04-02T08:06:14;6.20;99.90
9881;DHT22;4979;51.014;6.678;2023-04-02T08:08:40;6.20;99.90
9881;DHT22;4979;51.014;6.678;2023-04-02T08:11:06;6.30;99.90
9881;DHT22;4979;51.014;6.678;2023-04-02T08:13:32;6.20;99.90
9881;DHT22;4979;51.014;6.678;2023-04-02T08:15:59;6.30;99.90
9881;DHT22;4979;51.014;6.678;2023-04-02T08:18:25;6.30;99.90
9881;DHT22;4979;51.014;6.678;2023-04-02T08:20:51;6.20;99.90
9881;DHT22;4979;51.014;6.678;2023-04-02T08:23:17;6.30;99.90
9881;DHT22;4979;51.014;6.678;2023-04-02T08:25:46;6.30;99.90
9881;DHT22;4979;51.014;6.678;2023-04-02T08:30:38;6.30;99.90
9881;DHT22;4979;51.014;6.678;2023-04-02T08:33:04;6.30;99.90
9881;DHT22;4979;51.014;6.678;2023-04-02T08:35:30;6.20;99.90
9881;DHT22;4979;51.014;6.678;2023-04-02T08:40:37;6.20;99.90
9881;DHT22;4979;51.014;6.678;2023-04-02T08:48:55;6.40;99.90
9881;DHT22;4979;51.014;6.678;2023-04-02T08:51:24;6.40;99.90
9881;DHT22;4979;51.014;6.678;2023-04-02T08:53:53;6.40;99.90
9881;DHT22;4979;51.014;6.678;2023-04-02T08:56:38;6.40;99.90
9881;DHT22;4979;51.014;6.678;2023-04-02T09:01:55;6.20;99.90
9881;DHT22;4979;51.014;6.678;2023-04-02T09:04:24;6.10;99.90
9881;DHT22;4979;51.014;6.678;2023-04-02T09:06:53;6.10;99.90
9881;DHT22;4979;51.014;6.678;2023-04-02T09:09:21;6.20;99.90
9881;DHT22;4979;51.014;6.678;2023-04-02T09:14:18;6.30;99.90
9881;DHT22;4979;51.014;6.678;2023-04-02T09:16:45;6.30;99.90
9881;DHT22;4979;51.014;6.678;2023-04-02T09:19:24;6.30;99.90
9881;DHT22;4979;51.014;6.678;2023-04-02T09:22:18;6.40;99.90
9881;DHT22;4979;51.014;6.678;2023-04-02T09:24:56;6.40;99.90
9881;DHT22;4979;51.014;6.678;2023-04-02T09:27:39;6.40;99.90
9881;DHT22;4979;51.014;6.678;2023-04-02T09:30:26;6.50;99.90
9881;DHT22;4979;51.014;6.678;2023-04-02T09:32:59;6.70;99.90
9881;DHT22;4979;51.014;6.678;2023-04-02T09:35:57;6.70;99.90
9881;DHT22;4979;51.014;6.678;2023-04-02T09:38:25;6.80;99.90
9881;DHT22;4979;51.014;6.678;2023-04-02T09:43:35;6.70;99.90
9881;DHT22;4979;51.014;6.678;2023-04-02T09:51:17;7.00;99.90
9881;DHT22;4979;51.014;6.678;2023-04-02T09:53:47;7.00;99.90
9881;DHT22;4979;51.014;6.678;2023-04-02T09:56:20;6.90;99.90
9881;DHT22;4979;51.014;6.678;2023-04-02T09:59:13;7.00;99.90
9881;DHT22;4979;51.014;6.678;2023-04-02T10:01:43;6.80;99.90
9881;DHT22;4979;51.014;6.678;2023-04-02T10:04:46;6.80;99.90
9881;DHT22;4979;51.014;6.678;2023-04-02T10:10:39;6.60;99.90
9881;DHT22;4979;51.014;6.678;2023-04-02T10:13:23;6.90;99.90
9881;DHT22;4979;51.014;6.678;2023-04-02T10:15:56;6.80;99.90
9881;DHT22;4979;51.014;6.678;2023-04-02T10:18:49;6.80;99.90
9881;DHT22;4979;51.014;6.678;2023-04-02T10:21:24;7.00;99.90
9881;DHT22;4979;51.014;6.678;2023-04-02T10:23:52;7.10;99.90
9881;DHT22;4979;51.014;6.678;2023-04-02T10:26:44;6.90;99.90
9881;DHT22;4979;51.014;6.678;2023-04-02T10:29:37;7.10;99.90
9881;DHT22;4979;51.014;6.678;2023-04-02T10:32:24;7.10;99.90
9881;DHT22;4979;51.014;6.678;2023-04-02T10:35:30;7.20;99.90
9881;DHT22;4979;51.014;6.678;2023-04-02T10:38:24;7.30;99.90
9881;DHT22;4979;51.014;6.678;2023-04-02T10:43:29;7.20;99.90
9881;DHT22;4979;51.014;6.678;2023-04-02T10:46:22;7.20;99.90
9881;DHT22;4979;51.014;6.678;2023-04-02T10:49:26;7.20;99.90
9881;DHT22;4979;51.014;6.678;2023-04-02T10:51:58;7.40;99.90
9881;DHT22;4979;51.014;6.678;2023-04-02T10:54:50;7.40;99.90
9881;DHT22;4979;51.014;6.678;2023-04-02T10:57:36;7.50;99.90
9881;DHT22;4979;51.014;6.678;2023-04-02T11:03:16;7.50;99.90
9881;DHT22;4979;51.014;6.678;2023-04-02T11:05:46;7.40;99.90
9881;DHT22;4979;51.014;6.678;2023-04-02T11:08:19;7.40;99.90
9881;DHT22;4979;51.014;6.678;2023-04-02T11:10:57;7.40;99.90
9881;DHT22;4979;51.014;6.678;2023-04-02T11:16:06;7.60;99.90
9881;DHT22;4979;51.014;6.678;2023-04-02T11:18:34;7.60;99.90
9881;DHT22;4979;51.014;6.678;2023-04-02T11:23:50;7.70;99.90
9881;DHT22;4979;51.014;6.678;2023-04-02T11:26:28;7.70;99.90
9881;DHT22;4979;51.014;6.678;2023-04-02T11:31:43;7.90;99.90
9881;DHT22;4979;51.014;6.678;2023-04-02T11:34:55;7.60;99.90
9881;DHT22;4979;51.014;6.678;2023-04-02T11:37:02;7.50;99.90
9881;DHT22;4979;51.014;6.678;2023-04-02T11:39:52;7.70;99.90
9881;DHT22;4979;51.014;6.678;2023-04-02T11:42:36;7.70;99.90
9881;DHT22;4979;51.014;6.678;2023-04-02T11:50:38;7.50;99.90
9881;DHT22;4979;51.014;6.678;2023-04-02T11:58:37;8.00;99.90
9881;DHT22;4979;51.014;6.678;2023-04-02T12:11:53;7.80;99.90
9881;DHT22;4979;51.014;6.678;2023-04-02T12:14:45;7.80;99.90
9881;DHT22;4979;51.014;6.678;2023-04-02T12:17:35;7.80;99.90
9881;DHT22;4979;51.014;6.678;2023-04-02T12:22:38;7.80;99.90
9881;DHT22;4979;51.014;6.678;2023-04-02T12:30:20;8.00;99.90
9881;DHT22;4979;51.014;6.678;2023-04-02T12:32:46;7.90;99.90
9881;DHT22;4979;51.014;6.678;2023-04-02T12:35:31;8.00;99.90
9881;DHT22;4979;51.014;6.678;2023-04-02T12:37:58;8.00;99.90
9881;DHT22;4979;51.014;6.678;2023-04-02T12:40:24;8.00;99.90
9881;DHT22;4979;51.014;6.678;2023-04-02T12:42:50;8.10;99.90
9881;DHT22;4979;51.014;6.678;2023-04-02T12:45:35;8.10;99.90
9881;DHT22;4979;51.014;6.678;2023-04-02T12:48:03;8.10;99.90
9881;DHT22;4979;51.014;6.678;2023-04-02T12:50:31;8.00;99.90
9881;DHT22;4979;51.014;6.678;2023-04-02T12:52:57;8.00;99.90
9881;DHT22;4979;51.014;6.678;2023-04-02T12:55:25;8.00;99.90
9881;DHT22;4979;51.014;6.678;2023-04-02T12:57:58;8.00;99.90
9881;DHT22;4979;51.014;6.678;2023-04-02T13:05:44;8.20;99.90
9881;DHT22;4979;51.014;6.678;2023-04-02T13:08:39;8.00;99.90
9881;DHT22;4979;51.014;6.678;2023-04-02T13:11:05;8.10;99.90
9881;DHT22;4979;51.014;6.678;2023-04-02T13:13:38;8.10;99.90
9881;DHT22;4979;51.014;6.678;2023-04-02T13:18:32;8.00;99.90
9881;DHT22;4979;51.014;6.678;2023-04-02T13:21:00;8.00;99.90
9881;DHT22;4979;51.014;6.678;2023-04-02T13:25:58;8.10;99.90
9881;DHT22;4979;51.014;6.678;2023-04-02T13:28:24;8.00;99.90
9881;DHT22;4979;51.014;6.678;2023-04-02T13:30:50;8.00;99.90
9881;DHT22;4979;51.014;6.678;2023-04-02T13:35:42;8.10;99.90
9881;DHT22;4979;51.014;6.678;2023-04-02T13:40:35;8.10;99.90
9881;DHT22;4979;51.014;6.678;2023-04-02T13:43:02;8.20;99.90
9881;DHT22;4979;51.014;6.678;2023-04-02T13:45:33;8.30;99.90
9881;DHT22;4979;51.014;6.678;2023-04-02T13:50:31;8.20;99.90
9881;DHT22;4979;51.014;6.678;2023-04-02T13:53:03;8.00;99.90
9881;DHT22;4979;51.014;6.678;2023-04-02T13:55:30;8.10;99.90
9881;DHT22;4979;51.014;6.678;2023-04-02T13:57:59;8.00;99.90
9881;DHT22;4979;51.014;6.678;2023-04-02T14:00:25;8.20;99.90
9881;DHT22;4979;51.014;6.678;2023-04-02T14:02:57;8.00;99.90
9881;DHT22;4979;51.014;6.678;2023-04-02T14:08:08;8.00;99.90
9881;DHT22;4979;51.014;6.678;2023-04-02T14:19:34;8.10;99.90
9881;DHT22;4979;51.014;6.678;2023-04-02T14:30:30;7.70;99.90
9881;DHT22;4979;51.014;6.678;2023-04-02T14:33:26;7.70;99.90
9881;DHT22;4979;51.014;6.678;2023-04-02T14:35:58;7.70;99.90
9881;DHT22;4979;51.014;6.678;2023-04-02T14:38:35;7.80;99.90
9881;DHT22;4979;51.014;6.678;2023-04-02T14:41:38;7.70;99.90
9881;DHT22;4979;51.014;6.678;2023-04-02T14:44:07;7.90;99.90
9881;DHT22;4979;51.014;6.678;2023-04-02T14:46:36;7.90;99.90
9881;DHT22;4979;51.014;6.678;2023-04-02T14:49:20;7.70;99.90
9881;DHT22;4979;51.014;6.678;2023-04-02T14:54:38;7.70;99.90
9881;DHT22;4979;51.014;6.678;2023-04-02T14:57:22;7.80;99.90
9881;DHT22;4979;51.014;6.678;2023-04-02T15:00:03;7.70;99.90
9881;DHT22;4979;51.014;6.678;2023-04-02T15:02:41;7.70;99.90
9881;DHT22;4979;51.014;6.678;2023-04-02T15:05:18;7.70;99.90
9881;DHT22;4979;51.014;6.678;2023-04-02T15:07:52;7.70;99.90
9881;DHT22;4979;51.014;6.678;2023-04-02T15:10:35;7.60;99.90
9881;DHT22;4979;51.014;6.678;2023-04-02T15:13:09;7.60;99.90
9881;DHT22;4979;51.014;6.678;2023-04-02T15:15:50;7.60;99.90
9881;DHT22;4979;51.014;6.678;2023-04-02T15:18:21;7.50;99.90
9881;DHT22;4979;51.014;6.678;2023-04-02T15:26:05;7.70;99.90
9881;DHT22;4979;51.014;6.678;2023-04-02T15:28:47;7.60;99.90
9881;DHT22;4979;51.014;6.678;2023-04-02T15:31:14;7.60;99.90
9881;DHT22;4979;51.014;6.678;2023-04-02T15:33:44;7.60;99.90
9881;DHT22;4979;51.014;6.678;2023-04-02T15:45:25;7.60;99.90
9881;DHT22;4979;51.014;6.678;2023-04-02T15:50:53;7.70;99.90
9881;DHT22;4979;51.014;6.678;2023-04-02T15:56:33;7.60;99.90
9881;DHT22;4979;51.014;6.678;2023-04-02T15:59:36;7.50;99.90
9881;DHT22;4979;51.014;6.678;2023-04-02T16:02:37;7.70;99.90
9881;DHT22;4979;51.014;6.678;2023-04-02T16:05:19;7.60;99.90
9881;DHT22;4979;51.014;6.678;2023-04-02T16:08:13;7.80;99.90
9881;DHT22;4979;51.014;6.678;2023-04-02T16:10:41;7.70;99.90
9881;DHT22;4979;51.014;6.678;2023-04-02T16:13:15;7.70;99.90
9881;DHT22;4979;51.014;6.678;2023-04-02T16:16:08;7.80;99.90
9881;DHT22;4979;51.014;6.678;2023-04-02T16:21:52;8.10;99.90
9881;DHT22;4979;51.014;6.678;2023-04-02T16:24:20;8.00;99.90
9881;DHT22;4979;51.014;6.678;2023-04-02T16:32:45;8.00;99.90
9881;DHT22;4979;51.014;6.678;2023-04-02T16:35:25;8.20;99.90
9881;DHT22;4979;51.014;6.678;2023-04-02T16:38:04;8.30;99.90
9881;DHT22;4979;51.014;6.678;2023-04-02T16:40:45;8.30;99.90
9881;DHT22;4979;51.014;6.678;2023-04-02T16:46:00;8.40;99.90
9881;DHT22;4979;51.014;6.678;2023-04-02T16:48:40;8.40;99.90
9881;DHT22;4979;51.014;6.678;2023-04-02T17:01:56;8.20;99.90
9881;DHT22;4979;51.014;6.678;2023-04-02T17:04:37;8.00;99.90
9881;DHT22;4979;51.014;6.678;2023-04-02T17:18:32;7.70;99.90
9881;DHT22;4979;51.014;6.678;2023-04-02T17:21:07;7.60;99.90
9881;DHT22;4979;51.014;6.678;2023-04-02T17:23:54;7.70;99.90
9881;DHT22;4979;51.014;6.678;2023-04-02T17:26:27;7.90;99.90
9881;DHT22;4979;51.014;6.678;2023-04-02T17:28:55;8.20;99.90
9881;DHT22;4979;51.014;6.678;2023-04-02T17:31:30;8.30;99.90
9881;DHT22;4979;51.014;6.678;2023-04-02T17:34:17;8.30;99.90
9881;DHT22;4979;51.014;6.678;2023-04-02T17:42:22;7.50;99.90
9881;DHT22;4979;51.014;6.678;2023-04-02T17:48:23;7.50;99.90
9881;DHT22;4979;51.014;6.678;2023-04-02T17:51:08;7.50;99.90
9881;DHT22;4979;51.014;6.678;2023-04-02T18:00:07;7.40;99.90
9881;DHT22;4979;51.014;6.678;2023-04-02T18:05:37;7.20;99.90
9881;DHT22;4979;51.014;6.678;2023-04-02T18:13:46;7.30;99.90
9881;DHT22;4979;51.014;6.678;2023-04-02T18:16:26;7.20;99.90
9881;DHT22;4979;51.014;6.678;2023-04-02T18:19:07;7.20;99.90
9881;DHT22;4979;51.014;6.678;2023-04-02T18:27:26;7.10;99.90
9881;DHT22;4979;51.014;6.678;2023-04-02T18:32:56;7.20;99.90
9881;DHT22;4979;51.014;6.678;2023-04-02T18:38:41;7.20;99.90
9881;DHT22;4979;51.014;6.678;2023-04-02T18:41:42;7.10;99.90
9881;DHT22;4979;51.014;6.678;2023-04-02T18:44:26;7.10;99.90
9881;DHT22;4979;51.014;6.678;2023-04-02T18:47:02;7.00;99.90
9881;DHT22;4979;51.014;6.678;2023-04-02T18:49:33;7.00;99.90
9881;DHT22;4979;51.014;6.678;2023-04-02T18:52:03;6.90;99.90
9881;DHT22;4979;51.014;6.678;2023-04-02T18:54:45;7.00;99.90
9881;DHT22;4979;51.014;6.678;2023-04-02T18:57:21;6.90;99.90
9881;DHT22;4979;51.014;6.678;2023-04-02T19:05:54;6.90;99.90
9881;DHT22;4979;51.014;6.678;2023-04-02T19:10:56;6.80;99.90
9881;DHT22;4979;51.014;6.678;2023-04-02T19:19:09;6.70;99.90
9881;DHT22;4979;51.014;6.678;2023-04-02T19:24:48;6.50;99.90
9881;DHT22;4979;51.014;6.678;2023-04-02T19:35:27;6.40;99.90
9881;DHT22;4979;51.014;6.678;2023-04-02T19:40:59;6.30;99.90
9881;DHT22;4979;51.014;6.678;2023-04-02T19:43:26;6.20;99.90
9881;DHT22;4979;51.014;6.678;2023-04-02T19:45:52;6.30;99.90
9881;DHT22;4979;51.014;6.678;2023-04-02T19:48:25;6.20;99.90
9881;DHT22;4979;51.014;6.678;2023-04-02T19:50:51;6.20;99.90
9881;DHT22;4979;51.014;6.678;2023-04-02T19:53:17;6.10;99.90
9881;DHT22;4979;51.014;6.678;2023-04-02T19:55:43;6.10;99.90
9881;DHT22;4979;51.014;6.678;2023-04-02T19:58:26;6.10;99.90
9881;DHT22;4979;51.014;6.678;2023-04-02T20:00:52;6.10;99.90
9881;DHT22;4979;51.014;6.678;2023-04-02T20:03:18;6.10;99.90
9881;DHT22;4979;51.014;6.678;2023-04-02T20:05:43;6.10;99.90
9881;DHT22;4979;51.014;6.678;2023-04-02T20:08:10;6.10;99.90
9881;DHT22;4979;51.014;6.678;2023-04-02T20:10:35;6.10;99.90
9881;DHT22;4979;51.014;6.678;2023-04-02T20:13:01;6.00;99.90
9881;DHT22;4979;51.014;6.678;2023-04-02T20:15:27;6.00;99.90
9881;DHT22;4979;51.014;6.678;2023-04-02T20:17:52;5.90;99.90
9881;DHT22;4979;51.014;6.678;2023-04-02T20:20:18;6.00;99.90
9881;DHT22;4979;51.014;6.678;2023-04-02T20:22:43;5.90;99.90
9881;DHT22;4979;51.014;6.678;2023-04-02T20:25:09;5.90;99.90
9881;DHT22;4979;51.014;6.678;2023-04-02T20:27:35;5.80;99.90
9881;DHT22;4979;51.014;6.678;2023-04-02T20:30:01;5.80;99.90
9881;DHT22;4979;51.014;6.678;2023-04-02T20:32:26;5.80;99.90
9881;DHT22;4979;51.014;6.678;2023-04-02T20:34:52;5.70;99.90
9881;DHT22;4979;51.014;6.678;2023-04-02T20:37:18;5.70;99.90
9881;DHT22;4979;51.014;6.678;2023-04-02T20:39:44;5.60;99.90
9881;DHT22;4979;51.014;6.678;2023-04-02T20:44:36;5.60;99.90
9881;DHT22;4979;51.014;6.678;2023-04-02T20:47:02;5.50;99.90
9881;DHT22;4979;51.014;6.678;2023-04-02T20:51:53;5.50;99.90
9881;DHT22;4979;51.014;6.678;2023-04-02T20:54:19;5.50;99.90
9881;DHT22;4979;51.014;6.678;2023-04-02T20:56:45;5.50;99.90
9881;DHT22;4979;51.014;6.678;2023-04-02T20:59:10;5.50;99.90
9881;DHT22;4979;51.014;6.678;2023-04-02T21:01:36;5.50;99.90
9881;DHT22;4979;51.014;6.678;2023-04-02T21:04:02;5.40;99.90
9881;DHT22;4979;51.014;6.678;2023-04-02T21:06:30;5.40;99.90
9881;DHT22;4979;51.014;6.678;2023-04-02T21:08:56;5.40;99.90
9881;DHT22;4979;51.014;6.678;2023-04-02T21:11:23;5.40;99.90
9881;DHT22;4979;51.014;6.678;2023-04-02T21:13:49;5.30;99.90
9881;DHT22;4979;51.014;6.678;2023-04-02T21:18:41;5.30;99.90
9881;DHT22;4979;51.014;6.678;2023-04-02T21:21:07;5.30;99.90
9881;DHT22;4979;51.014;6.678;2023-04-02T21:23:33;5.20;99.90
9881;DHT22;4979;51.014;6.678;2023-04-02T21:26:03;5.20;99.90
9881;DHT22;4979;51.014;6.678;2023-04-02T21:28:31;5.10;99.90
9881;DHT22;4979;51.014;6.678;2023-04-02T21:33:33;5.10;99.90
9881;DHT22;4979;51.014;6.678;2023-04-02T21:36:11;5.10;99.90
9881;DHT22;4979;51.014;6.678;2023-04-02T21:38:41;5.10;99.90
9881;DHT22;4979;51.014;6.678;2023-04-02T21:41:27;5.10;99.90
9881;DHT22;4979;51.014;6.678;2023-04-02T21:43:54;5.10;99.90
9881;DHT22;4979;51.014;6.678;2023-04-02T21:46:22;5.10;99.90
9881;DHT22;4979;51.014;6.678;2023-04-02T21:48:49;5.00;99.90
9881;DHT22;4979;51.014;6.678;2023-04-02T21:51:17;5.00;99.90
9881;DHT22;4979;51.014;6.678;2023-04-02T21:53:44;5.00;99.90
9881;DHT22;4979;51.014;6.678;2023-04-02T21:56:17;5.00;99.90
9881;DHT22;4979;51.014;6.678;2023-04-02T21:58:45;5.00;99.90
9881;DHT22;4979;51.014;6.678;2023-04-02T22:01:11;5.10;99.90
9881;DHT22;4979;51.014;6.678;2023-04-02T22:03:37;5.00;99.90
9881;DHT22;4979;51.014;6.678;2023-04-02T22:06:06;5.00;99.90
9881;DHT22;4979;51.014;6.678;2023-04-02T22:08:33;5.00;99.90
9881;DHT22;4979;51.014;6.678;2023-04-02T22:11:22;5.00;99.90
9881;DHT22;4979;51.014;6.678;2023-04-02T22:13:49;4.90;99.90
9881;DHT22;4979;51.014;6.678;2023-04-02T22:16:17;4.90;99.90
9881;DHT22;4979;51.014;6.678;2023-04-02T22:18:43;4.90;99.90
9881;DHT22;4979;51.014;6.678;2023-04-02T22:21:09;4.90;99.90
9881;DHT22;4979;51.014;6.678;2023-04-02T22:23:36;4.90;99.90
9881;DHT22;4979;51.014;6.678;2023-04-02T22:26:02;4.90;99.90
9881;DHT22;4979;51.014;6.678;2023-04-02T22:28:28;4.90;99.90
9881;DHT22;4979;51.014;6.678;2023-04-02T22:30:55;4.90;99.90
9881;DHT22;4979;51.014;6.678;2023-04-02T22:33:21;4.90;99.90
9881;DHT22;4979;51.014;6.678;2023-04-02T22:35:52;4.90;99.90